sensor_id;sensor_type;location;lat;lon;timestamp;pressure;altitude;pressure_sealevel;temperature;humidity
29549;BME280;16487;53.094;8.800;2023-04-27T00:02:04;101023.56;;;4.08;100.00
29549;BME280;16487;53.094;8.800;2023-04-27T00:04:32;101024.75;;;4.07;100.00
29549;BME280;16487;53.094;8.800;2023-04-27T00:06:59;101019.25;;;4.03;100.00
29549;BME280;16487;53.094;8.800;2023-04-27T00:09:27;101011.34;;;4.02;100.00
29549;BME280;16487;53.094;8.800;2023-04-27T00:11:54;101016.47;;;4.00;100.00
29549;BME280;16487;53.094;8.800;2023-04-27T00:14:22;101014.88;;;3.99;100.00
29549;BME280;16487;53.094;8.800;2023-04-27T00:16:50;101016.06;;;3.94;100.00
29549;BME280;16487;53.094;8.800;2023-04-27T00:19:18;101012.50;;;3.87;100.00
29549;BME280;16487;53.094;8.800;2023-04-27T00:21:45;101009.34;;;3.88;100.00
29549;BME280;16487;53.094;8.800;2023-04-27T00:24:12;101017.22;;;3.79;100.00
29549;BME280;16487;53.094;8.800;2023-04-27T00:26:40;101007.38;;;3.78;100.00
29549;BME280;16487;53.094;8.800;2023-04-27T00:29:07;101008.97;;;3.79;100.00
29549;BME280;16487;53.094;8.800;2023-04-27T00:31:34;100997.53;;;3.74;100.00
29549;BME280;16487;53.094;8.800;2023-04-27T00:34:03;101003.03;;;3.77;100.00
29549;BME280;16487;53.094;8.800;2023-04-27T00:36:32;101000.69;;;3.72;100.00
29549;BME280;16487;53.094;8.800;2023-04-27T00:38:59;100990.41;;;3.69;100.00
29549;BME280;16487;53.094;8.800;2023-04-27T00:41:27;100988.84;;;3.68;100.00
29549;BME280;16487;53.094;8.800;2023-04-27T00:43:55;100985.69;;;3.66;100.00
29549;BME280;16487;53.094;8.800;2023-04-27T00:46:22;100973.88;;;3.69;100.00
29549;BME280;16487;53.094;8.800;2023-04-27T00:48:50;100984.13;;;3.65;100.00
29549;BME280;16487;53.094;8.800;2023-04-27T00:51:19;100985.66;;;3.59;100.00
29549;BME280;16487;53.094;8.800;2023-04-27T00:53:51;100973.09;;;3.62;100.00
29549;BME280;16487;53.094;8.800;2023-04-27T00:56:19;100981.75;;;3.57;100.00
29549;BME280;16487;53.094;8.800;2023-04-27T00:58:47;100968.72;;;3.57;100.00
29549;BME280;16487;53.094;8.800;2023-04-27T01:01:15;100968.31;;;3.55;100.00
29549;BME280;16487;53.094;8.800;2023-04-27T01:03:42;100965.22;;;3.60;100.00
29549;BME280;16487;53.094;8.800;2023-04-27T01:06:10;100959.69;;;3.53;100.00
29549;BME280;16487;53.094;8.800;2023-04-27T01:08:38;100962.03;;;3.51;100.00
29549;BME280;16487;53.094;8.800;2023-04-27T01:11:06;100954.94;;;3.50;100.00
29549;BME280;16487;53.094;8.800;2023-04-27T01:13:33;100951.00;;;3.47;100.00
29549;BME280;16487;53.094;8.800;2023-04-27T01:16:01;100947.06;;;3.52;100.00
29549;BME280;16487;53.094;8.800;2023-04-27T01:18:29;100939.19;;;3.47;100.00
29549;BME280;16487;53.094;8.800;2023-04-27T01:20:56;100940.38;;;3.46;100.00
29549;BME280;16487;53.094;8.800;2023-04-27T01:23:26;100940.78;;;3.44;100.00
29549;BME280;16487;53.094;8.800;2023-04-27T01:25:53;100933.28;;;3.41;100.00
29549;BME280;16487;53.094;8.800;2023-04-27T01:28:20;100932.50;;;3.41;100.00
29549;BME280;16487;53.094;8.800;2023-04-27T01:30:47;100930.91;;;3.40;100.00
29549;BME280;16487;53.094;8.800;2023-04-27T01:33:15;100930.50;;;3.31;100.00
29549;BME280;16487;53.094;8.800;2023-04-27T01:35:42;100918.72;;;3.34;100.00
29549;BME280;16487;53.094;8.800;2023-04-27T01:38:10;100920.66;;;3.30;100.00
29549;BME280;16487;53.094;8.800;2023-04-27T01:40:39;100917.91;;;3.33;100.00
29549;BME280;16487;53.094;8.800;2023-04-27T01:43:06;100913.97;;;3.34;100.00
29549;BME280;16487;53.094;8.800;2023-04-27T01:45:34;100915.94;;;3.27;100.00
29549;BME280;16487;53.094;8.800;2023-04-27T01:48:01;100919.47;;;3.31;100.00
29549;BME280;16487;53.094;8.800;2023-04-27T01:50:29;100909.25;;;3.28;100.00
29549;BME280;16487;53.094;8.800;2023-04-27T01:52:56;100908.81;;;3.19;100.00
29549;BME280;16487;53.094;8.800;2023-04-27T01:55:23;100901.75;;;3.18;100.00
29549;BME280;16487;53.094;8.800;2023-04-27T01:57:52;100898.19;;;3.17;100.00
29549;BME280;16487;53.094;8.800;2023-04-27T02:00:19;100891.13;;;3.20;100.00
29549;BME280;16487;53.094;8.800;2023-04-27T02:02:47;100882.06;;;3.16;100.00
29549;BME280;16487;53.094;8.800;2023-04-27T02:05:14;100882.44;;;3.11;100.00
29549;BME280;16487;53.094;8.800;2023-04-27T02:07:41;100874.19;;;3.14;100.00
29549;BME280;16487;53.094;8.800;2023-04-27T02:10:09;100878.91;;;3.07;100.00
29549;BME280;16487;53.094;8.800;2023-04-27T02:12:38;100871.44;;;3.07;100.00
29549;BME280;16487;53.094;8.800;2023-04-27T02:15:08;100868.28;;;3.05;100.00
29549;BME280;16487;53.094;8.800;2023-04-27T02:17:36;100863.97;;;3.04;100.00
29549;BME280;16487;53.094;8.800;2023-04-27T02:20:04;100853.31;;;2.96;100.00
29549;BME280;16487;53.094;8.800;2023-04-27T02:22:32;100850.16;;;2.97;100.00
29549;BME280;16487;53.094;8.800;2023-04-27T02:24:59;100847.81;;;2.92;100.00
29549;BME280;16487;53.094;8.800;2023-04-27T02:27:27;100834.78;;;2.89;100.00
29549;BME280;16487;53.094;8.800;2023-04-27T02:29:54;100836.78;;;2.85;100.00
29549;BME280;16487;53.094;8.800;2023-04-27T02:32:23;100829.66;;;2.81;100.00
29549;BME280;16487;53.094;8.800;2023-04-27T02:34:51;100815.53;;;2.79;100.00
29549;BME280;16487;53.094;8.800;2023-04-27T02:37:18;100817.09;;;2.80;100.00
29549;BME280;16487;53.094;8.800;2023-04-27T02:39:46;100807.28;;;2.79;100.00
29549;BME280;16487;53.094;8.800;2023-04-27T02:42:13;100800.56;;;2.73;100.00
29549;BME280;16487;53.094;8.800;2023-04-27T02:44:41;100796.59;;;2.70;100.00
29549;BME280;16487;53.094;8.800;2023-04-27T02:47:09;100792.69;;;2.71;100.00
29549;BME280;16487;53.094;8.800;2023-04-27T02:49:38;100788.75;;;2.69;100.00
29549;BME280;16487;53.094;8.800;2023-04-27T02:52:05;100793.47;;;2.61;100.00
29549;BME280;16487;53.094;8.800;2023-04-27T02:54:33;100785.59;;;2.70;100.00
29549;BME280;16487;53.094;8.800;2023-04-27T02:57:00;100778.50;;;2.62;100.00
29549;BME280;16487;53.094;8.800;2023-04-27T02:59:28;100774.19;;;2.61;100.00
29549;BME280;16487;53.094;8.800;2023-04-27T03:01:55;100771.44;;;2.58;100.00
29549;BME280;16487;53.094;8.800;2023-04-27T03:04:23;100760.84;;;2.60;100.00
29549;BME280;16487;53.094;8.800;2023-04-27T03:06:51;100760.41;;;2.51;100.00
29549;BME280;16487;53.094;8.800;2023-04-27T03:09:19;100756.50;;;2.59;100.00
29549;BME280;16487;53.094;8.800;2023-04-27T03:11:46;100758.06;;;2.53;100.00
29549;BME280;16487;53.094;8.800;2023-04-27T03:14:13;100757.69;;;2.58;100.00
29549;BME280;16487;53.094;8.800;2023-04-27T03:16:40;100754.91;;;2.51;100.00
29549;BME280;16487;53.094;8.800;2023-04-27T03:19:08;100742.28;;;2.43;100.00
29549;BME280;16487;53.094;8.800;2023-04-27T03:21:35;100752.53;;;2.46;100.00
29549;BME280;16487;53.094;8.800;2023-04-27T03:24:04;100744.66;;;2.41;100.00
29549;BME280;16487;53.094;8.800;2023-04-27T03:26:31;100743.88;;;2.44;100.00
29549;BME280;16487;53.094;8.800;2023-04-27T03:28:59;100739.16;;;2.41;100.00
29549;BME280;16487;53.094;8.800;2023-04-27T03:31:28;100744.66;;;2.37;100.00
29549;BME280;16487;53.094;8.800;2023-04-27T03:33:55;100742.66;;;2.38;100.00
29549;BME280;16487;53.094;8.800;2023-04-27T03:36:22;100742.28;;;2.39;100.00
29549;BME280;16487;53.094;8.800;2023-04-27T03:38:50;100742.69;;;2.41;100.00
29549;BME280;16487;53.094;8.800;2023-04-27T03:41:18;100742.66;;;2.38;100.00
29549;BME280;16487;53.094;8.800;2023-04-27T03:43:45;100738.38;;;2.37;100.00
29549;BME280;16487;53.094;8.800;2023-04-27T03:46:13;100735.22;;;2.34;100.00
29549;BME280;16487;53.094;8.800;2023-04-27T03:48:40;100735.63;;;2.37;100.00
29549;BME280;16487;53.094;8.800;2023-04-27T03:51:08;100746.19;;;2.34;100.00
29549;BME280;16487;53.094;8.800;2023-04-27T03:53:35;100740.69;;;2.27;100.00
29549;BME280;16487;53.094;8.800;2023-04-27T03:56:03;100735.19;;;2.27;100.00
29549;BME280;16487;53.094;8.800;2023-04-27T03:58:32;100724.97;;;2.28;100.00
29549;BME280;16487;53.094;8.800;2023-04-27T04:01:13;100722.22;;;2.24;100.00
29549;BME280;16487;53.094;8.800;2023-04-27T04:03:40;100718.69;;;2.27;100.00
29549;BME280;16487;53.094;8.800;2023-04-27T04:06:08;100720.28;;;2.28;100.00
29549;BME280;16487;53.094;8.800;2023-04-27T04:08:35;100717.50;;;2.25;100.00
29549;BME280;16487;53.094;8.800;2023-04-27T04:11:03;100720.28;;;2.28;100.00
29549;BME280;16487;53.094;8.800;2023-04-27T04:13:32;100711.63;;;2.26;100.00
29549;BME280;16487;53.094;8.800;2023-04-27T04:16:00;100717.91;;;2.30;100.00
29549;BME280;16487;53.094;8.800;2023-04-27T04:18:28;100712.41;;;2.30;100.00
29549;BME280;16487;53.094;8.800;2023-04-27T04:20:55;100714.75;;;2.25;100.00
29549;BME280;16487;53.094;8.800;2023-04-27T04:23:23;100706.53;;;2.28;100.00
29549;BME280;16487;53.094;8.800;2023-04-27T04:25:50;100711.63;;;2.26;100.00
29549;BME280;16487;53.094;8.800;2023-04-27T04:28:19;100713.97;;;2.28;100.00
29549;BME280;16487;53.094;8.800;2023-04-27T04:30:48;100715.16;;;2.30;100.00
29549;BME280;16487;53.094;8.800;2023-04-27T04:33:15;100725.41;;;2.37;100.00
29549;BME280;16487;53.094;8.800;2023-04-27T04:35:43;100731.69;;;2.41;100.00
29549;BME280;16487;53.094;8.800;2023-04-27T04:38:10;100724.63;;;2.40;100.00
29549;BME280;16487;53.094;8.800;2023-04-27T04:40:39;100717.94;;;2.41;100.00
29549;BME280;16487;53.094;8.800;2023-04-27T04:43:07;100717.53;;;2.39;100.00
29549;BME280;16487;53.094;8.800;2023-04-27T04:45:34;100727.38;;;2.40;100.00
29549;BME280;16487;53.094;8.800;2023-04-27T04:48:02;100722.69;;;2.44;100.00
29549;BME280;16487;53.094;8.800;2023-04-27T04:50:30;100730.53;;;2.46;100.00
29549;BME280;16487;53.094;8.800;2023-04-27T04:52:57;100725.81;;;2.50;100.00
29549;BME280;16487;53.094;8.800;2023-04-27T04:55:25;100724.69;;;2.58;100.00
29549;BME280;16487;53.094;8.800;2023-04-27T04:57:53;100732.53;;;2.56;100.00
29549;BME280;16487;53.094;8.800;2023-04-27T05:00:20;100732.94;;;2.65;100.00
29549;BME280;16487;53.094;8.800;2023-04-27T05:02:48;100733.72;;;2.69;100.00
29549;BME280;16487;53.094;8.800;2023-04-27T05:05:17;100724.31;;;2.70;100.00
29549;BME280;16487;53.094;8.800;2023-04-27T05:07:44;100731.38;;;2.78;100.00
29549;BME280;16487;53.094;8.800;2023-04-27T05:10:11;100729.03;;;2.83;100.00
29549;BME280;16487;53.094;8.800;2023-04-27T05:12:39;100738.47;;;2.89;100.00
29549;BME280;16487;53.094;8.800;2023-04-27T05:15:06;100731.41;;;2.95;100.00
29549;BME280;16487;53.094;8.800;2023-04-27T05:17:34;100734.97;;;3.10;100.00
29549;BME280;16487;53.094;8.800;2023-04-27T05:20:02;100740.47;;;3.10;100.00
29549;BME280;16487;53.094;8.800;2023-04-27T05:22:30;100740.84;;;3.15;100.00
29549;BME280;16487;53.094;8.800;2023-04-27T05:24:58;100750.31;;;3.18;100.00
29549;BME280;16487;53.094;8.800;2023-04-27T05:27:25;100761.72;;;3.27;100.00
29549;BME280;16487;53.094;8.800;2023-04-27T05:29:52;100762.88;;;3.40;100.00
29549;BME280;16487;53.094;8.800;2023-04-27T05:32:19;100767.22;;;3.44;100.00
29549;BME280;16487;53.094;8.800;2023-04-27T05:34:47;100772.34;;;3.49;100.00
29549;BME280;16487;53.094;8.800;2023-04-27T05:37:15;100784.91;;;3.65;100.00
29549;BME280;16487;53.094;8.800;2023-04-27T05:39:44;100786.88;;;3.68;100.00
29549;BME280;16487;53.094;8.800;2023-04-27T05:42:11;100792.00;;;3.69;100.00
29549;BME280;16487;53.094;8.800;2023-04-27T05:44:38;100798.28;;;3.77;100.00
29549;BME280;16487;53.094;8.800;2023-04-27T05:47:06;100799.84;;;3.81;100.00
29549;BME280;16487;53.094;8.800;2023-04-27T05:49:33;100808.13;;;3.85;100.00
29549;BME280;16487;53.094;8.800;2023-04-27T05:52:00;100806.16;;;3.92;100.00
29549;BME280;16487;53.094;8.800;2023-04-27T05:54:28;100815.19;;;3.96;100.00
29549;BME280;16487;53.094;8.800;2023-04-27T05:56:56;100828.19;;;4.06;100.00
29549;BME280;16487;53.094;8.800;2023-04-27T05:59:24;100837.19;;;4.17;100.00
29549;BME280;16487;53.094;8.800;2023-04-27T06:01:51;100850.19;;;4.31;100.00
29549;BME280;16487;53.094;8.800;2023-04-27T06:04:18;100857.28;;;4.28;100.00
29549;BME280;16487;53.094;8.800;2023-04-27T06:06:46;100867.47;;;4.42;100.00
29549;BME280;16487;53.094;8.800;2023-04-27T06:09:13;100877.69;;;4.55;100.00
29549;BME280;16487;53.094;8.800;2023-04-27T06:11:41;100889.88;;;4.68;100.00
29549;BME280;16487;53.094;8.800;2023-04-27T06:14:09;100907.53;;;4.89;100.00
29549;BME280;16487;53.094;8.800;2023-04-27T06:16:36;100930.44;;;4.89;100.00
29549;BME280;16487;53.094;8.800;2023-04-27T06:19:04;100952.91;;;4.95;100.00
29549;BME280;16487;53.094;8.800;2023-04-27T06:21:31;100982.47;;;5.05;100.00
29549;BME280;16487;53.094;8.800;2023-04-27T06:23:58;101007.66;;;5.24;100.00
29549;BME280;16487;53.094;8.800;2023-04-27T06:26:26;101043.53;;;5.35;100.00
29549;BME280;16487;53.094;8.800;2023-04-27T06:28:54;101078.69;;;5.31;100.00
29549;BME280;16487;53.094;8.800;2023-04-27T06:31:22;101106.28;;;5.45;100.00
29549;BME280;16487;53.094;8.800;2023-04-27T06:33:50;101149.66;;;5.62;100.00
29549;BME280;16487;53.094;8.800;2023-04-27T06:36:17;101198.59;;;5.68;100.00
29549;BME280;16487;53.094;8.800;2023-04-27T06:38:44;101245.22;;;5.77;100.00
29549;BME280;16487;53.094;8.800;2023-04-27T06:41:12;101302.91;;;5.86;100.00
29549;BME280;16487;53.094;8.800;2023-04-27T06:43:39;101351.13;;;5.88;100.00
29549;BME280;16487;53.094;8.800;2023-04-27T06:46:06;101407.63;;;5.94;100.00
29549;BME280;16487;53.094;8.800;2023-04-27T06:48:35;101453.09;;;6.07;100.00
29549;BME280;16487;53.094;8.800;2023-04-27T06:51:02;101487.06;;;6.22;100.00
29549;BME280;16487;53.094;8.800;2023-04-27T06:53:30;101540.47;;;6.33;100.00
29549;BME280;16487;53.094;8.800;2023-04-27T06:55:57;101575.25;;;6.41;100.00
29549;BME280;16487;53.094;8.800;2023-04-27T06:58:24;101606.94;;;6.50;100.00
29549;BME280;16487;53.094;8.800;2023-04-27T07:00:52;101635.44;;;6.54;100.00
29549;BME280;16487;53.094;8.800;2023-04-27T07:03:20;101658.78;;;6.74;100.00
29549;BME280;16487;53.094;8.800;2023-04-27T07:05:49;101706.28;;;6.90;100.00
29549;BME280;16487;53.094;8.800;2023-04-27T07:08:16;101743.09;;;6.91;100.00
29549;BME280;16487;53.094;8.800;2023-04-27T07:10:43;101764.88;;;6.89;100.00
29549;BME280;16487;53.094;8.800;2023-04-27T07:13:11;101796.53;;;6.88;100.00
29549;BME280;16487;53.094;8.800;2023-04-27T07:15:39;101803.69;;;6.89;100.00
29549;BME280;16487;53.094;8.800;2023-04-27T07:18:07;101809.22;;;7.10;100.00
29549;BME280;16487;53.094;8.800;2023-04-27T07:20:36;101827.84;;;7.06;100.00
29549;BME280;16487;53.094;8.800;2023-04-27T07:23:05;101845.69;;;7.23;100.00
29549;BME280;16487;53.094;8.800;2023-04-27T07:25:32;101863.16;;;7.34;100.00
29549;BME280;16487;53.094;8.800;2023-04-27T07:28:00;101876.63;;;7.35;100.00
29549;BME280;16487;53.094;8.800;2023-04-27T07:30:27;101876.66;;;7.46;100.00
29549;BME280;16487;53.094;8.800;2023-04-27T07:32:54;101876.66;;;7.49;100.00
29549;BME280;16487;53.094;8.800;2023-04-27T07:35:22;101911.53;;;7.68;100.00
29549;BME280;16487;53.094;8.800;2023-04-27T07:37:49;101934.13;;;7.66;100.00
29549;BME280;16487;53.094;8.800;2023-04-27T07:40:20;101945.66;;;7.72;100.00
29549;BME280;16487;53.094;8.800;2023-04-27T07:42:48;101978.94;;;7.72;100.00
29549;BME280;16487;53.094;8.800;2023-04-27T07:45:15;101983.31;;;7.83;100.00
29549;BME280;16487;53.094;8.800;2023-04-27T07:47:42;101982.13;;;7.88;100.00
29549;BME280;16487;53.094;8.800;2023-04-27T07:50:10;101991.66;;;7.90;100.00
29549;BME280;16487;53.094;8.800;2023-04-27T07:52:37;101998.81;;;8.09;100.00
29549;BME280;16487;53.094;8.800;2023-04-27T07:55:05;102018.66;;;8.11;100.00
29549;BME280;16487;53.094;8.800;2023-04-27T07:57:34;102022.22;;;8.19;100.00
29549;BME280;16487;53.094;8.800;2023-04-27T08:00:02;102060.69;;;8.13;100.00
29549;BME280;16487;53.094;8.800;2023-04-27T08:02:38;102049.16;;;7.97;100.00
29549;BME280;16487;53.094;8.800;2023-04-27T08:05:06;102049.19;;;8.07;100.00
29549;BME280;16487;53.094;8.800;2023-04-27T08:07:34;102051.16;;;8.18;100.00
29549;BME280;16487;53.094;8.800;2023-04-27T08:10:10;102070.66;;;8.35;100.00
29549;BME280;16487;53.094;8.800;2023-04-27T08:12:39;102076.22;;;8.42;100.00
29549;BME280;16487;53.094;8.800;2023-04-27T08:15:07;102084.16;;;8.44;100.00
29549;BME280;16487;53.094;8.800;2023-04-27T08:17:35;102082.97;;;8.24;100.00
29549;BME280;16487;53.094;8.800;2023-04-27T08:20:03;102102.34;;;8.13;100.00
29549;BME280;16487;53.094;8.800;2023-04-27T08:22:30;102094.47;;;8.29;100.00
29549;BME280;16487;53.094;8.800;2023-04-27T08:24:58;102112.34;;;8.49;100.00
29549;BME280;16487;53.094;8.800;2023-04-27T08:27:25;102135.78;;;8.55;100.00
29549;BME280;16487;53.094;8.800;2023-04-27T08:29:54;102161.59;;;8.77;100.00
29549;BME280;16487;53.094;8.800;2023-04-27T08:32:21;102176.66;;;8.48;100.00
29549;BME280;16487;53.094;8.800;2023-04-27T08:34:49;102180.25;;;8.76;100.00
29549;BME280;16487;53.094;8.800;2023-04-27T08:37:16;102191.00;;;8.95;100.00
29549;BME280;16487;53.094;8.800;2023-04-27T08:39:43;102198.16;;;8.82;100.00
29549;BME280;16487;53.094;8.800;2023-04-27T08:42:11;102196.19;;;8.86;100.00
29549;BME280;16487;53.094;8.800;2023-04-27T08:44:39;102202.91;;;8.92;100.00
29549;BME280;16487;53.094;8.800;2023-04-27T08:47:08;102211.69;;;9.08;100.00
29549;BME280;16487;53.094;8.800;2023-04-27T08:49:36;102212.84;;;9.07;100.00
29549;BME280;16487;53.094;8.800;2023-04-27T08:52:03;102213.25;;;9.31;100.00
29549;BME280;16487;53.094;8.800;2023-04-27T08:54:30;102221.59;;;9.20;100.00
29549;BME280;16487;53.094;8.800;2023-04-27T08:56:57;102222.81;;;9.30;100.00
29549;BME280;16487;53.094;8.800;2023-04-27T08:59:25;102224.38;;;9.38;100.00
29549;BME280;16487;53.094;8.800;2023-04-27T09:01:52;102225.56;;;9.37;100.00
29549;BME280;16487;53.094;8.800;2023-04-27T09:04:21;102223.56;;;9.48;100.00
29549;BME280;16487;53.094;8.800;2023-04-27T09:06:49;102233.09;;;9.57;100.00
29549;BME280;16487;53.094;8.800;2023-04-27T09:09:23;102238.66;;;9.57;100.00
29549;BME280;16487;53.094;8.800;2023-04-27T09:11:50;102238.66;;;9.75;100.00
29549;BME280;16487;53.094;8.800;2023-04-27T09:14:19;102241.03;;;9.73;100.00
29549;BME280;16487;53.094;8.800;2023-04-27T09:16:52;102245.78;;;9.76;100.00
29549;BME280;16487;53.094;8.800;2023-04-27T09:19:26;102235.88;;;9.68;100.00
29549;BME280;16487;53.094;8.800;2023-04-27T09:22:05;102237.41;;;9.90;100.00
29549;BME280;16487;53.094;8.800;2023-04-27T09:24:33;102243.38;;;9.88;100.00
29549;BME280;16487;53.094;8.800;2023-04-27T09:27:00;102227.38;;;10.06;100.00
29549;BME280;16487;53.094;8.800;2023-04-27T09:29:31;102237.00;;;9.84;100.00
29549;BME280;16487;53.094;8.800;2023-04-27T09:31:59;102233.69;;;10.35;100.00
29549;BME280;16487;53.094;8.800;2023-04-27T09:34:36;102232.09;;;10.30;100.00
29549;BME280;16487;53.094;8.800;2023-04-27T09:37:04;102232.69;;;10.73;100.00
29549;BME280;16487;53.094;8.800;2023-04-27T09:39:32;102226.69;;;11.26;100.00
29549;BME280;16487;53.094;8.800;2023-04-27T09:42:00;102204.34;;;12.64;100.00
29549;BME280;16487;53.094;8.800;2023-04-27T09:44:27;102182.50;;;14.33;100.00
29549;BME280;16487;53.094;8.800;2023-04-27T09:46:57;102174.41;;;14.71;100.00
29549;BME280;16487;53.094;8.800;2023-04-27T09:49:26;102171.78;;;15.44;100.00
29549;BME280;16487;53.094;8.800;2023-04-27T09:51:55;102160.88;;;16.16;100.00
29549;BME280;16487;53.094;8.800;2023-04-27T09:54:28;102161.91;;;16.35;100.00
29549;BME280;16487;53.094;8.800;2023-04-27T09:57:05;102150.56;;;17.35;100.00
29549;BME280;16487;53.094;8.800;2023-04-27T09:59:47;102145.47;;;17.77;100.00
29549;BME280;16487;53.094;8.800;2023-04-27T10:02:20;102166.31;;;15.37;100.00
29549;BME280;16487;53.094;8.800;2023-04-27T10:05:18;102180.22;;;13.00;100.00
29549;BME280;16487;53.094;8.800;2023-04-27T10:07:52;102195.38;;;12.49;100.00
29549;BME280;16487;53.094;8.800;2023-04-27T10:10:19;102182.50;;;13.74;100.00
29549;BME280;16487;53.094;8.800;2023-04-27T10:12:55;102159.16;;;15.20;100.00
29549;BME280;16487;53.094;8.800;2023-04-27T10:15:25;102141.25;;;15.87;100.00
29549;BME280;16487;53.094;8.800;2023-04-27T10:17:53;102160.28;;;15.67;100.00
29549;BME280;16487;53.094;8.800;2023-04-27T10:20:28;102146.63;;;14.93;100.00
29549;BME280;16487;53.094;8.800;2023-04-27T10:22:57;102163.63;;;15.02;100.00
29549;BME280;16487;53.094;8.800;2023-04-27T10:25:26;102185.13;;;13.62;100.00
29549;BME280;16487;53.094;8.800;2023-04-27T10:27:55;102180.97;;;12.78;100.00
29549;BME280;16487;53.094;8.800;2023-04-27T10:30:25;102189.94;;;12.92;100.00
29549;BME280;16487;53.094;8.800;2023-04-27T10:32:53;102198.84;;;12.30;100.00
29549;BME280;16487;53.094;8.800;2023-04-27T10:35:22;102209.06;;;11.77;100.00
29549;BME280;16487;53.094;8.800;2023-04-27T10:38:06;102211.94;;;11.70;100.00
29549;BME280;16487;53.094;8.800;2023-04-27T10:40:34;102220.56;;;11.86;100.00
29549;BME280;16487;53.094;8.800;2023-04-27T10:43:09;102217.84;;;11.79;100.00
29549;BME280;16487;53.094;8.800;2023-04-27T10:45:37;102204.16;;;12.51;100.00
29549;BME280;16487;53.094;8.800;2023-04-27T10:48:04;102182.63;;;13.87;100.00
29549;BME280;16487;53.094;8.800;2023-04-27T10:50:32;102157.41;;;14.94;100.00
29549;BME280;16487;53.094;8.800;2023-04-27T10:53:03;102152.38;;;15.02;100.00
29549;BME280;16487;53.094;8.800;2023-04-27T10:55:33;102163.16;;;14.00;100.00
29549;BME280;16487;53.094;8.800;2023-04-27T10:58:00;102156.78;;;14.54;100.00
29549;BME280;16487;53.094;8.800;2023-04-27T11:00:29;102158.75;;;15.34;100.00
29549;BME280;16487;53.094;8.800;2023-04-27T11:03:09;102149.63;;;15.46;100.00
29549;BME280;16487;53.094;8.800;2023-04-27T11:05:37;102125.00;;;16.20;100.00
29549;BME280;16487;53.094;8.800;2023-04-27T11:08:05;102141.84;;;15.66;100.00
29549;BME280;16487;53.094;8.800;2023-04-27T11:10:37;102114.97;;;16.82;100.00
29549;BME280;16487;53.094;8.800;2023-04-27T11:13:07;102100.94;;;17.50;100.00
29549;BME280;16487;53.094;8.800;2023-04-27T11:15:45;102098.19;;;17.25;100.00
29549;BME280;16487;53.094;8.800;2023-04-27T11:18:12;102100.34;;;17.21;100.00
29549;BME280;16487;53.094;8.800;2023-04-27T11:20:40;102106.88;;;16.34;100.00
29549;BME280;16487;53.094;8.800;2023-04-27T11:23:07;102105.91;;;16.53;100.00
29549;BME280;16487;53.094;8.800;2023-04-27T11:25:36;102106.38;;;16.98;100.00
29549;BME280;16487;53.094;8.800;2023-04-27T11:28:03;102106.09;;;16.21;100.00
29549;BME280;16487;53.094;8.800;2023-04-27T11:30:31;102112.72;;;15.00;100.00
29549;BME280;16487;53.094;8.800;2023-04-27T11:32:58;102148.81;;;13.35;100.00
29549;BME280;16487;53.094;8.800;2023-04-27T11:35:33;102145.31;;;13.31;100.00
29549;BME280;16487;53.094;8.800;2023-04-27T11:38:01;102127.94;;;14.70;100.00
29549;BME280;16487;53.094;8.800;2023-04-27T11:40:28;102120.91;;;14.94;100.00
29549;BME280;16487;53.094;8.800;2023-04-27T11:42:57;102103.63;;;14.79;100.00
29549;BME280;16487;53.094;8.800;2023-04-27T11:45:25;102121.03;;;15.64;100.00
29549;BME280;16487;53.094;8.800;2023-04-27T11:47:53;102115.22;;;15.42;100.00
29549;BME280;16487;53.094;8.800;2023-04-27T11:50:23;102106.97;;;15.51;100.00
29549;BME280;16487;53.094;8.800;2023-04-27T11:52:50;102124.53;;;15.39;100.00
29549;BME280;16487;53.094;8.800;2023-04-27T11:55:19;102127.03;;;14.57;100.00
29549;BME280;16487;53.094;8.800;2023-04-27T11:57:47;102110.38;;;14.50;100.00
29549;BME280;16487;53.094;8.800;2023-04-27T12:00:16;102125.72;;;14.45;100.00
29549;BME280;16487;53.094;8.800;2023-04-27T12:02:44;102130.63;;;14.22;100.00
29549;BME280;16487;53.094;8.800;2023-04-27T12:05:13;102131.75;;;13.69;100.00
29549;BME280;16487;53.094;8.800;2023-04-27T12:07:41;102139.34;;;13.29;100.00
29549;BME280;16487;53.094;8.800;2023-04-27T12:10:08;102136.53;;;14.63;100.00
29549;BME280;16487;53.094;8.800;2023-04-27T12:12:36;102146.78;;;13.98;100.00
29549;BME280;16487;53.094;8.800;2023-04-27T12:15:04;102141.03;;;13.66;100.00
29549;BME280;16487;53.094;8.800;2023-04-27T12:17:32;102144.25;;;13.64;100.00
29549;BME280;16487;53.094;8.800;2023-04-27T12:20:00;102150.16;;;13.50;100.00
29549;BME280;16487;53.094;8.800;2023-04-27T12:22:27;102150.38;;;13.99;100.00
29549;BME280;16487;53.094;8.800;2023-04-27T12:24:54;102134.91;;;14.10;100.00
29549;BME280;16487;53.094;8.800;2023-04-27T12:27:22;102137.06;;;13.63;100.00
29549;BME280;16487;53.094;8.800;2023-04-27T12:29:49;102157.06;;;13.65;100.00
29549;BME280;16487;53.094;8.800;2023-04-27T12:32:17;102140.38;;;13.58;100.00
29549;BME280;16487;53.094;8.800;2023-04-27T12:34:46;102145.13;;;13.19;100.00
29549;BME280;16487;53.094;8.800;2023-04-27T12:37:13;102140.16;;;13.69;100.00
29549;BME280;16487;53.094;8.800;2023-04-27T12:39:40;102130.53;;;13.90;100.00
29549;BME280;16487;53.094;8.800;2023-04-27T12:42:08;102130.44;;;14.48;100.00
29549;BME280;16487;53.094;8.800;2023-04-27T12:44:35;102143.19;;;13.58;100.00
29549;BME280;16487;53.094;8.800;2023-04-27T12:47:02;102130.28;;;14.20;100.00
29549;BME280;16487;53.094;8.800;2023-04-27T12:49:30;102131.56;;;15.15;100.00
29549;BME280;16487;53.094;8.800;2023-04-27T12:51:58;102123.72;;;15.55;100.00
29549;BME280;16487;53.094;8.800;2023-04-27T12:54:26;102117.06;;;15.90;100.00